Time;durP1;ratioP1;P1;durP2;ratioP2;P2;SDS_P1;SDS_P2;PMS_P1;PMS_P2;Temp;Humidity;BMP_temperature;BMP_pressure;BME280_temperature;BME280_humidity;BME280_pressure;Samples;Min_cycle;Max_cycle;Signal;HPM_P1;HPM_P2
2022/12/13 00:01:15;;;;;;;30.20;13.68;;;;;;;-0.73;62.90;96507.16;5019802;28;20699;-75
2022/12/13 00:03:41;;;;;;;29.08;13.10;;;;;;;-0.79;61.81;96508.72;4969502;28;20218;-75
2022/12/13 00:06:08;;;;;;;32.60;14.88;;;;;;;-0.78;62.04;96507.72;5003363;28;20616;-75
2022/12/13 00:08:33;;;;;;;28.83;12.50;;;;;;;-0.85;61.45;96499.22;4988843;28;20633;-74
2022/12/13 00:11:00;;;;;;;27.20;12.40;;;;;;;-0.98;62.53;96489.72;4995094;28;20101;-74
2022/12/13 00:13:25;;;;;;;24.90;12.00;;;;;;;-0.84;62.24;96479.56;4953105;28;20347;-75
2022/12/13 00:16:03;;;;;;;28.48;12.50;;;;;;;-0.69;61.27;96474.31;4991355;28;20280;-75
2022/12/13 00:18:28;;;;;;;26.63;11.32;;;;;;;-0.98;61.58;96474.41;4996644;28;20217;-75
2022/12/13 00:20:54;;;;;;;28.50;11.73;;;;;;;-0.97;61.97;96481.06;4988966;28;20256;-74
2022/12/13 00:23:19;;;;;;;25.52;10.98;;;;;;;-0.96;61.97;96482.66;4977965;28;20280;-74
2022/12/13 00:25:45;;;;;;;32.05;12.32;;;;;;;-1.03;62.14;96475.91;5004831;28;20327;-76
2022/12/13 00:28:11;;;;;;;26.85;11.43;;;;;;;-1.02;61.85;96478.28;5009315;28;20253;-75
2022/12/13 00:30:36;;;;;;;28.45;11.57;;;;;;;-1.08;61.76;96468.84;5006422;28;20201;-75
2022/12/13 00:33:02;;;;;;;29.48;11.65;;;;;;;-1.13;62.29;96466.06;4988072;28;20192;-75
2022/12/13 00:35:27;;;;;;;28.17;11.32;;;;;;;-1.06;61.92;96477.09;5004461;28;20230;-75
2022/12/13 00:37:52;;;;;;;26.50;11.20;;;;;;;-1.07;61.63;96472.94;4991593;28;20196;-74
2022/12/13 00:40:18;;;;;;;24.05;11.20;;;;;;;-1.08;61.83;96447.59;5017393;28;20912;-74
2022/12/13 00:42:43;;;;;;;25.70;11.55;;;;;;;-1.11;61.89;96458.19;4990292;28;20632;-75
2022/12/13 00:45:08;;;;;;;27.75;12.02;;;;;;;-1.09;61.80;96459.59;4994637;28;20278;-74
2022/12/13 00:47:35;;;;;;;29.90;11.82;;;;;;;-1.18;62.04;96458.16;4999062;28;20222;-75
2022/12/13 00:50:00;;;;;;;22.88;11.02;;;;;;;-1.17;61.54;96457.19;4952772;28;20248;-75
2022/12/13 00:52:26;;;;;;;24.83;11.15;;;;;;;-1.02;61.96;96467.28;4986151;28;20277;-75
2022/12/13 00:54:51;;;;;;;25.52;11.93;;;;;;;-1.06;61.54;96471.19;4985849;28;20269;-75
2022/12/13 00:57:17;;;;;;;23.10;10.38;;;;;;;-1.04;61.26;96467.47;4997302;28;20112;-75
2022/12/13 00:59:42;;;;;;;27.75;11.88;;;;;;;-1.11;61.37;96460.72;5005735;28;20221;-75
2022/12/13 01:02:08;;;;;;;28.77;11.60;;;;;;;-1.15;61.56;96456.03;4996106;28;20282;-75
2022/12/13 01:04:33;;;;;;;27.33;12.45;;;;;;;-1.25;61.80;96452.22;5005844;28;20276;-75
2022/12/13 01:06:58;;;;;;;25.63;11.70;;;;;;;-1.29;62.14;96454.34;4985627;28;20203;-75
2022/12/13 01:09:29;;;;;;;22.98;11.45;;;;;;;-1.20;62.32;96455.00;5001571;28;20632;-74
2022/12/13 01:12:05;;;;;;;26.77;11.85;;;;;;;-1.08;61.94;96452.69;4985179;28;20265;-75
2022/12/13 01:14:34;;;;;;;24.67;10.45;;;;;;;-1.11;61.15;96459.00;4986709;28;20235;-74
2022/12/13 01:16:59;;;;;;;25.98;11.65;;;;;;;-1.11;61.79;96453.88;4986809;28;20292;-75
2022/12/13 01:19:26;;;;;;;27.92;10.95;;;;;;;-1.09;61.86;96462.13;4988208;28;20663;-75
2022/12/13 01:22:02;;;;;;;27.13;11.43;;;;;;;-1.05;61.43;96439.56;4988784;28;20186;-75
2022/12/13 01:24:29;;;;;;;25.40;11.60;;;;;;;-1.15;62.35;96458.59;5003452;28;20639;-74
2022/12/13 01:26:54;;;;;;;27.45;10.88;;;;;;;-1.17;61.87;96449.50;4968051;28;20205;-75
2022/12/13 01:29:21;;;;;;;26.80;12.55;;;;;;;-1.35;61.78;96448.22;4984624;28;20304;-75
2022/12/13 01:31:47;;;;;;;24.92;11.10;;;;;;;-1.28;62.09;96447.50;4966442;28;20389;-75
2022/12/13 01:34:15;;;;;;;27.48;12.43;;;;;;;-1.24;61.78;96451.25;4968503;28;20167;-75
2022/12/13 01:36:42;;;;;;;27.30;11.63;;;;;;;-1.29;61.58;96445.91;4983225;28;20185;-75
2022/12/13 01:39:09;;;;;;;29.70;11.00;;;;;;;-1.29;61.13;96451.78;4988652;28;20193;-75
2022/12/13 01:41:35;;;;;;;28.73;11.80;;;;;;;-1.29;61.89;96443.34;5001466;28;20626;-75
2022/12/13 01:44:02;;;;;;;27.60;12.68;;;;;;;-1.42;61.69;96442.28;5012214;28;20271;-75
2022/12/13 01:46:30;;;;;;;26.90;11.75;;;;;;;-1.47;62.40;96439.50;4980036;28;20267;-75
2022/12/13 01:49:00;;;;;;;26.27;11.70;;;;;;;-1.42;61.68;96436.38;4988047;28;20757;-74
2022/12/13 01:51:41;;;;;;;23.27;11.50;;;;;;;-1.33;62.30;96441.16;4990130;28;20193;-75
2022/12/13 01:54:10;;;;;;;27.90;13.32;;;;;;;-1.34;61.82;96436.25;4975625;28;20288;-75
2022/12/13 01:56:40;;;;;;;27.52;11.15;;;;;;;-1.47;62.39;96438.69;4996443;28;20212;-75
2022/12/13 01:59:06;;;;;;;26.60;11.68;;;;;;;-1.47;62.10;96436.97;5008375;28;20203;-75
2022/12/13 02:01:32;;;;;;;23.50;10.02;;;;;;;-1.41;61.40;96438.75;5025996;28;20631;-75
2022/12/13 02:03:57;;;;;;;29.02;12.23;;;;;;;-1.46;61.81;96435.19;5004848;28;20263;-75
2022/12/13 02:06:32;;;;;;;29.73;11.93;;;;;;;-1.30;61.75;96431.56;4994015;28;20257;-75
2022/12/13 02:08:59;;;;;;;30.50;11.25;;;;;;;-1.37;61.54;96432.31;5023128;28;20283;-74
2022/12/13 02:11:26;;;;;;;27.58;12.73;;;;;;;-1.32;61.70;96436.84;4988004;28;20279;-74
2022/12/13 02:13:52;;;;;;;28.20;12.48;;;;;;;-1.27;61.35;96449.06;4991145;28;20304;-75
2022/12/13 02:16:29;;;;;;;25.17;11.73;;;;;;;-1.25;60.33;96457.31;4989393;28;20282;-75
2022/12/13 02:19:16;;;;;;;26.17;12.20;;;;;;;-1.05;60.40;96445.44;5007054;28;20182;-74
2022/12/13 02:22:08;;;;;;;26.80;11.32;;;;;;;-1.32;60.42;96454.72;5008631;28;20280;-75
2022/12/13 02:24:54;;;;;;;26.55;10.40;;;;;;;-1.30;61.03;96444.31;4968363;28;20276;-75
2022/12/13 02:27:25;;;;;;;27.33;11.23;;;;;;;-1.32;61.64;96442.75;5004311;28;20380;-74
2022/12/13 02:30:21;;;;;;;25.92;11.57;;;;;;;-1.58;61.17;96442.56;5010241;28;20227;-75
2022/12/13 02:32:46;;;;;;;26.92;12.57;;;;;;;-1.65;61.46;96436.63;4991250;28;20182;-75
2022/12/13 02:35:31;;;;;;;26.90;11.15;;;;;;;-1.64;60.52;96433.09;4996773;28;20202;-75
2022/12/13 02:38:31;;;;;;;26.15;11.70;;;;;;;-1.75;62.05;96430.09;4984654;28;20202;-75
2022/12/13 02:41:08;;;;;;;22.98;9.77;;;;;;;-1.91;61.97;96433.66;5000307;27;20193;-75
2022/12/13 02:43:41;;;;;;;25.67;10.50;;;;;;;-1.97;62.04;96433.59;4988956;28;20201;-75
2022/12/13 02:46:08;;;;;;;25.67;10.50;;;;;;;-1.98;62.06;96426.94;4973544;28;20276;-75
2022/12/13 02:48:36;;;;;;;26.98;10.13;;;;;;;-1.94;62.48;96433.25;4992159;28;20196;-74
2022/12/13 02:51:03;;;;;;;29.13;11.73;;;;;;;-1.94;62.24;96428.16;4989275;28;20627;-74
2022/12/13 02:53:30;;;;;;;24.58;11.45;;;;;;;-1.87;62.04;96423.88;4981763;28;20164;-74
2022/12/13 02:55:55;;;;;;;25.40;10.23;;;;;;;-1.86;61.97;96422.13;4955421;28;20292;-75
2022/12/13 02:58:28;;;;;;;32.05;12.15;;;;;;;-1.75;62.09;96424.97;5008364;28;20288;-75
2022/12/13 03:01:15;;;;;;;30.33;10.88;;;;;;;-1.80;61.97;96427.31;5008269;28;20193;-75
2022/12/13 03:03:49;;;;;;;29.00;12.48;;;;;;;-1.88;62.87;96418.00;5026797;28;20167;-75
2022/12/13 03:06:29;;;;;;;28.17;11.95;;;;;;;-1.84;62.11;96413.31;5017851;28;20214;-75
2022/12/13 03:09:16;;;;;;;28.45;11.50;;;;;;;-1.64;61.64;96425.44;5006986;28;20175;-75
2022/12/13 03:15:33;;;;;;;30.63;12.05;;;;;;;-1.57;61.55;96410.97;5006519;28;20639;-75
2022/12/13 03:18:14;;;;;;;25.85;10.73;;;;;;;-1.62;61.96;96400.53;4978996;27;20119;-75
2022/12/13 03:20:45;;;;;;;29.92;12.60;;;;;;;-1.71;61.72;96407.53;4996064;28;20181;-75
2022/12/13 03:23:10;;;;;;;29.38;11.77;;;;;;;-1.77;61.52;96409.03;4974657;28;20205;-75
2022/12/13 03:25:36;;;;;;;30.30;11.32;;;;;;;-1.79;62.02;96405.91;4970536;28;20549;-75
2022/12/13 03:28:01;;;;;;;27.67;11.40;;;;;;;-1.83;62.44;96406.44;4988142;28;20206;-74
2022/12/13 03:30:27;;;;;;;24.23;10.95;;;;;;;-1.70;62.31;96406.53;4963979;28;20235;-74
2022/12/13 03:32:52;;;;;;;27.40;11.00;;;;;;;-1.79;61.21;96402.56;4974218;28;20193;-74
2022/12/13 03:35:18;;;;;;;27.20;12.27;;;;;;;-1.89;62.58;96400.31;5007758;28;20369;-75
2022/12/13 03:37:44;;;;;;;26.52;10.70;;;;;;;-1.75;62.28;96404.56;5026182;28;20323;-75
2022/12/13 03:40:10;;;;;;;26.45;10.73;;;;;;;-1.86;62.34;96404.28;4974271;28;20361;-75
2022/12/13 03:42:35;;;;;;;27.45;12.75;;;;;;;-1.83;62.43;96399.59;5006262;27;20189;-75
2022/12/13 03:45:00;;;;;;;28.52;11.45;;;;;;;-1.83;62.10;96397.03;4957866;28;20186;-75
2022/12/13 03:47:26;;;;;;;26.02;11.05;;;;;;;-1.86;62.65;96399.97;4971042;28;20632;-75
2022/12/13 03:49:51;;;;;;;30.55;12.30;;;;;;;-1.80;62.29;96401.78;5006100;28;20292;-75
2022/12/13 03:52:16;;;;;;;25.92;10.75;;;;;;;-1.78;61.89;96391.38;4987609;28;20281;-75
2022/12/13 03:54:42;;;;;;;28.10;12.15;;;;;;;-1.82;61.92;96390.16;5005738;28;20179;-75
2022/12/13 03:57:07;;;;;;;25.83;10.32;;;;;;;-1.81;61.35;96401.97;5027930;27;20153;-75
2022/12/13 03:59:32;;;;;;;26.50;10.95;;;;;;;-1.89;62.68;96392.66;4971143;28;20617;-75
2022/12/13 04:01:58;;;;;;;30.30;12.55;;;;;;;-1.97;61.37;96382.59;4987567;28;20785;-75
2022/12/13 04:04:23;;;;;;;27.40;10.88;;;;;;;-1.95;61.61;96386.53;4987254;28;20202;-75
2022/12/13 04:06:48;;;;;;;28.05;10.45;;;;;;;-2.00;61.77;96376.09;5006734;28;20275;-75
2022/12/13 04:09:14;;;;;;;22.80;9.50;;;;;;;-2.11;61.79;96372.31;5010357;27;20234;-74
2022/12/13 04:14:43;;;;;;;28.73;10.77;;;;;;;-2.36;63.35;96366.00;4967533;28;22070;-75
2022/12/13 04:17:08;;;;;;;23.70;10.27;;;;;;;-2.28;63.68;96366.66;4974039;28;20203;-75
2022/12/13 04:19:34;;;;;;;26.15;10.77;;;;;;;-2.17;62.28;96377.34;4981655;28;20222;-74
2022/12/13 04:21:59;;;;;;;29.90;12.23;;;;;;;-2.28;62.31;96376.06;4987503;28;20216;-75
2022/12/13 04:24:24;;;;;;;25.90;11.20;;;;;;;-2.19;62.62;96374.97;4970134;28;20132;-75
2022/12/13 04:26:50;;;;;;;25.88;11.10;;;;;;;-2.09;62.68;96374.66;4997178;28;20198;-75
2022/12/13 04:29:15;;;;;;;26.30;10.85;;;;;;;-2.08;62.03;96371.13;4970856;28;20160;-75
2022/12/13 04:31:40;;;;;;;25.05;9.80;;;;;;;-2.12;62.42;96375.03;5023281;28;20194;-75
2022/12/13 04:34:06;;;;;;;25.85;10.35;;;;;;;-1.96;62.10;96373.97;5006988;28;20158;-75
2022/12/13 04:36:31;;;;;;;23.77;10.80;;;;;;;-1.92;61.85;96377.72;5004521;28;20201;-75
2022/12/13 04:38:57;;;;;;;26.85;11.43;;;;;;;-1.99;61.94;96379.44;4987325;28;20300;-74
2022/12/13 04:41:22;;;;;;;22.80;10.00;;;;;;;-1.93;61.23;96378.72;5007548;28;20185;-74
2022/12/13 04:43:52;;;;;;;24.90;10.43;;;;;;;-1.77;61.58;96373.31;4970060;28;20267;-74
2022/12/13 04:46:21;;;;;;;30.13;11.43;;;;;;;-1.81;61.37;96372.13;4987147;28;20256;-75
2022/12/13 04:48:46;;;;;;;24.27;11.02;;;;;;;-1.94;61.35;96366.91;4986986;28;20260;-75
2022/12/13 04:51:15;;;;;;;23.50;9.93;;;;;;;-1.93;61.77;96368.50;4986813;28;20202;-75
2022/12/13 04:53:41;;;;;;;28.65;12.00;;;;;;;-1.98;61.75;96365.72;5003641;28;20280;-75
2022/12/13 04:56:06;;;;;;;23.38;9.88;;;;;;;-1.95;61.59;96367.91;5026928;28;20273;-74
2022/12/13 04:58:32;;;;;;;23.77;9.77;;;;;;;-2.01;61.71;96377.06;5007440;28;20221;-75
2022/12/13 05:00:57;;;;;;;26.45;11.90;;;;;;;-2.05;61.55;96368.22;5007056;28;20217;-75
2022/12/13 05:03:23;;;;;;;28.58;12.00;;;;;;;-1.97;61.25;96377.50;5006025;28;20179;-75
2022/12/13 05:05:48;;;;;;;24.92;11.40;;;;;;;-2.01;60.60;96371.19;4990340;28;20213;-74
2022/12/13 05:08:14;;;;;;;25.63;10.88;;;;;;;-2.15;60.91;96368.53;4974071;28;20214;-75
2022/12/13 05:10:39;;;;;;;25.33;10.48;;;;;;;-2.00;61.87;96367.69;4970299;28;20287;-74
2022/12/13 05:13:05;;;;;;;23.75;10.77;;;;;;;-1.97;61.13;96372.38;4986769;28;20206;-74
2022/12/13 05:15:31;;;;;;;21.98;10.68;;;;;;;-2.00;60.53;96368.47;4970149;28;20351;-75
2022/12/13 05:18:05;;;;;;;27.02;11.15;;;;;;;-1.91;62.02;96369.88;4987462;28;20585;-75
2022/12/13 05:20:30;;;;;;;25.70;10.77;;;;;;;-1.99;61.05;96374.34;5006165;28;20160;-74
2022/12/13 05:22:56;;;;;;;23.17;10.55;;;;;;;-2.09;61.60;96375.44;5007607;28;20225;-74
2022/12/13 05:25:23;;;;;;;25.40;10.80;;;;;;;-2.14;61.46;96370.13;5010144;28;20735;-75
2022/12/13 05:27:48;;;;;;;27.05;10.30;;;;;;;-2.02;61.65;96369.59;4979236;28;20191;-74
2022/12/13 05:30:14;;;;;;;25.17;10.57;;;;;;;-2.03;60.80;96373.13;5013321;28;20361;-75
2022/12/13 05:32:39;;;;;;;25.75;10.65;;;;;;;-2.06;60.65;96366.63;5010342;28;20267;-74
2022/12/13 05:35:05;;;;;;;24.75;10.23;;;;;;;-2.14;60.61;96366.75;4993286;28;20201;-75
2022/12/13 05:37:30;;;;;;;25.42;11.95;;;;;;;-2.13;61.02;96358.91;4998624;28;20187;-75
2022/12/13 05:39:56;;;;;;;27.15;10.63;;;;;;;-2.01;61.03;96371.19;4989704;28;20259;-74
2022/12/13 05:42:21;;;;;;;28.80;10.90;;;;;;;-2.04;60.86;96363.91;5007892;28;20445;-75
2022/12/13 05:44:46;;;;;;;25.10;10.45;;;;;;;-2.19;61.18;96362.22;5006278;28;20184;-75
2022/12/13 05:47:12;;;;;;;24.10;10.82;;;;;;;-2.27;61.25;96359.78;5008493;28;20201;-74
2022/12/13 05:49:37;;;;;;;27.70;11.82;;;;;;;-2.13;61.13;96364.03;4990151;28;20292;-75
2022/12/13 05:52:02;;;;;;;25.27;10.77;;;;;;;-2.13;61.18;96364.03;4973228;28;20648;-75
2022/12/13 05:54:28;;;;;;;24.88;9.68;;;;;;;-2.11;61.42;96369.75;4974899;28;20647;-75
2022/12/13 05:56:53;;;;;;;20.00;9.52;;;;;;;-2.10;61.78;96366.22;5000908;28;20246;-75
2022/12/13 05:59:18;;;;;;;20.42;9.98;;;;;;;-2.05;61.37;96364.88;4989420;28;20710;-74
2022/12/13 06:01:44;;;;;;;22.38;10.38;;;;;;;-2.14;60.96;96367.56;4971942;28;20624;-74
2022/12/13 06:04:11;;;;;;;21.70;10.80;;;;;;;-2.08;60.96;96364.25;5007709;27;20621;-74
2022/12/13 06:06:36;;;;;;;34.35;14.38;;;;;;;-2.17;60.53;96364.59;4994437;28;20217;-74
2022/12/13 06:09:02;;;;;;;24.83;12.27;;;;;;;-2.23;61.13;96370.41;5027544;28;20695;-74
2022/12/13 06:11:27;;;;;;;25.13;11.52;;;;;;;-2.20;61.00;96362.41;5027214;28;20619;-74
2022/12/13 06:13:53;;;;;;;25.50;11.05;;;;;;;-2.30;61.49;96372.91;5026291;28;20328;-74
2022/12/13 06:16:18;;;;;;;26.30;11.02;;;;;;;-2.30;60.46;96380.56;5005163;28;20651;-75
2022/12/13 06:18:43;;;;;;;28.92;12.13;;;;;;;-2.37;61.81;96377.16;4971454;28;20601;-74
2022/12/13 06:21:09;;;;;;;34.40;14.73;;;;;;;-2.29;61.63;96379.59;4988451;28;20380;-75
2022/12/13 06:23:35;;;;;;;34.88;17.38;;;;;;;-2.41;61.17;96373.41;4971732;28;20218;-75
2022/12/13 06:26:05;;;;;;;25.42;11.23;;;;;;;-2.44;61.96;96364.34;4988694;28;20160;-74
2022/12/13 06:28:31;;;;;;;28.65;12.45;;;;;;;-2.38;61.66;96366.19;5008237;28;20291;-75
2022/12/13 06:31:01;;;;;;;25.92;13.75;;;;;;;-2.38;61.13;96365.38;4991309;28;20406;-75
2022/12/13 06:33:27;;;;;;;32.85;14.13;;;;;;;-2.42;61.58;96374.38;4991005;28;20174;-75
2022/12/13 06:35:55;;;;;;;33.30;13.45;;;;;;;-2.29;60.48;96377.03;4983544;28;20182;-74
2022/12/13 06:38:20;;;;;;;25.77;11.18;;;;;;;-2.37;60.92;96377.94;5007297;28;20209;-75
2022/12/13 06:40:46;;;;;;;27.83;12.15;;;;;;;-2.34;61.24;96382.69;4991352;28;20163;-75
2022/12/13 06:43:11;;;;;;;30.08;12.30;;;;;;;-2.35;60.61;96381.09;5002740;28;20197;-75
2022/12/13 06:45:39;;;;;;;28.42;11.95;;;;;;;-2.37;61.04;96365.19;4992486;28;20275;-75
2022/12/13 06:48:05;;;;;;;27.08;12.10;;;;;;;-2.47;61.04;96373.16;5004391;28;20215;-74
2022/12/13 06:50:31;;;;;;;28.33;14.52;;;;;;;-2.56;60.69;96368.34;5009243;28;20193;-74
2022/12/13 06:52:56;;;;;;;29.00;13.73;;;;;;;-2.62;60.88;96367.31;4993317;28;20623;-75
2022/12/13 06:55:22;;;;;;;34.20;13.27;;;;;;;-2.64;61.04;96372.59;5008270;28;20260;-75
2022/12/13 06:57:47;;;;;;;31.02;13.27;;;;;;;-2.71;61.28;96368.38;5019095;28;20197;-74
2022/12/13 07:00:13;;;;;;;28.10;12.40;;;;;;;-2.79;61.71;96374.41;5004014;28;20066;-75
2022/12/13 07:02:39;;;;;;;26.67;12.90;;;;;;;-2.86;61.67;96374.31;4992002;28;20210;-74
2022/12/13 07:05:05;;;;;;;26.67;12.32;;;;;;;-2.77;61.33;96380.09;5019732;28;20252;-74
2022/12/13 07:07:30;;;;;;;26.08;12.02;;;;;;;-2.80;61.49;96387.31;4971991;28;20166;-75
2022/12/13 07:09:56;;;;;;;25.98;12.75;;;;;;;-2.78;61.36;96386.16;4988524;28;20608;-74
2022/12/13 07:12:21;;;;;;;27.20;11.50;;;;;;;-2.76;61.03;96385.97;4971816;28;20268;-74
2022/12/13 07:14:47;;;;;;;24.30;10.55;;;;;;;-2.78;61.43;96398.09;5006628;28;20236;-75
2022/12/13 07:17:13;;;;;;;25.08;13.27;;;;;;;-2.73;61.44;96390.72;5010627;28;20199;-75
2022/12/13 07:19:38;;;;;;;30.13;15.05;;;;;;;-2.72;61.05;96387.22;5025450;28;20297;-75
2022/12/13 07:22:04;;;;;;;38.22;16.70;;;;;;;-2.71;60.70;96397.22;5027113;28;20179;-74
2022/12/13 07:24:30;;;;;;;39.95;17.25;;;;;;;-2.72;60.89;96398.19;5023867;28;20286;-75
2022/12/13 07:26:55;;;;;;;33.28;14.90;;;;;;;-2.69;61.17;96400.38;5005737;28;20210;-75
2022/12/13 07:29:20;;;;;;;34.15;16.35;;;;;;;-2.71;60.62;96396.41;5004664;28;20289;-74
2022/12/13 07:31:46;;;;;;;29.90;14.77;;;;;;;-2.62;60.77;96408.09;5002181;28;20646;-74
2022/12/13 07:34:11;;;;;;;29.20;14.65;;;;;;;-2.63;61.13;96414.16;4990887;28;20589;-74
2022/12/13 07:36:36;;;;;;;28.40;12.93;;;;;;;-2.59;60.61;96420.47;4986911;28;20104;-74
2022/12/13 07:39:02;;;;;;;29.80;11.52;;;;;;;-2.66;61.37;96411.94;4987961;28;20172;-74
2022/12/13 07:41:27;;;;;;;31.08;13.05;;;;;;;-2.69;61.11;96419.94;4971317;28;20206;-74
2022/12/13 07:43:53;;;;;;;28.58;11.60;;;;;;;-2.83;61.80;96419.00;5022851;28;20204;-75
2022/12/13 07:46:19;;;;;;;28.30;12.57;;;;;;;-2.86;61.38;96417.63;4988478;28;20188;-74
2022/12/13 07:48:44;;;;;;;30.65;13.75;;;;;;;-2.89;61.84;96414.66;4987875;28;20248;-75
2022/12/13 07:51:10;;;;;;;25.75;11.18;;;;;;;-2.92;62.02;96415.00;4987069;28;20818;-75
2022/12/13 07:53:36;;;;;;;27.17;12.45;;;;;;;-2.84;61.86;96407.25;5007590;28;20197;-75
2022/12/13 07:56:03;;;;;;;28.35;13.38;;;;;;;-2.73;61.17;96409.34;4985465;28;20213;-75
2022/12/13 07:58:29;;;;;;;32.13;13.07;;;;;;;-2.68;60.92;96398.59;4971269;28;20617;-74
2022/12/13 08:01:02;;;;;;;28.95;13.27;;;;;;;-2.52;61.62;96398.41;4989493;28;20206;-74
2022/12/13 08:03:28;;;;;;;29.13;12.68;;;;;;;-2.68;61.21;96401.94;4990516;28;20637;-75
2022/12/13 08:06:08;;;;;;;28.65;11.38;;;;;;;-2.40;60.48;96410.66;4986941;28;20311;-74
2022/12/13 08:08:34;;;;;;;27.75;12.35;;;;;;;-2.45;61.31;96417.09;5002005;27;20202;-75
2022/12/13 08:11:04;;;;;;;34.38;14.85;;;;;;;-2.41;61.41;96417.53;4989519;28;20222;-74
2022/12/13 08:13:30;;;;;;;29.38;12.40;;;;;;;-2.32;61.44;96420.75;4975865;28;20186;-74
2022/12/13 08:16:05;;;;;;;27.65;13.32;;;;;;;-2.22;61.19;96415.34;4954448;28;20259;-75
2022/12/13 08:18:30;;;;;;;29.00;11.80;;;;;;;-2.29;60.98;96416.06;4987442;28;20175;-74
2022/12/13 08:21:00;;;;;;;25.35;11.98;;;;;;;-2.10;60.79;96417.22;4988129;28;20197;-74
2022/12/13 08:23:25;;;;;;;25.90;11.82;;;;;;;-2.13;60.78;96415.03;5030193;27;20724;-75
2022/12/13 08:25:54;;;;;;;34.05;14.75;;;;;;;-2.16;61.38;96410.31;5046001;27;20246;-74
2022/12/13 08:28:21;;;;;;;36.08;16.45;;;;;;;-2.12;61.43;96401.31;5027453;27;20257;-75
2022/12/13 08:30:46;;;;;;;36.85;16.27;;;;;;;-2.10;61.24;96398.59;5027418;27;20194;-75
2022/12/13 08:33:12;;;;;;;31.83;15.27;;;;;;;-2.04;60.85;96407.25;5027127;27;20645;-75
2022/12/13 08:35:37;;;;;;;30.63;12.40;;;;;;;-1.94;61.26;96412.84;5046043;27;20362;-74
2022/12/13 08:38:02;;;;;;;29.30;13.63;;;;;;;-2.01;60.88;96414.56;5027491;28;20204;-75
2022/12/13 08:40:28;;;;;;;30.80;12.60;;;;;;;-1.76;60.94;96413.19;5045985;28;20779;-74
2022/12/13 08:42:54;;;;;;;27.23;11.82;;;;;;;-1.73;60.64;96422.22;5027090;28;20138;-73
2022/12/13 08:45:20;;;;;;;26.02;10.48;;;;;;;-1.67;60.14;96424.03;5018615;28;20360;-74
2022/12/13 08:47:45;;;;;;;24.35;10.75;;;;;;;-1.66;60.63;96417.16;5005299;28;20270;-74
2022/12/13 08:50:11;;;;;;;26.35;11.93;;;;;;;-1.62;60.29;96418.41;4986914;28;20186;-74
2022/12/13 08:52:36;;;;;;;30.13;12.70;;;;;;;-1.58;60.23;96420.38;4968569;28;20336;-73
2022/12/13 08:55:01;;;;;;;25.40;11.43;;;;;;;-1.65;60.61;96426.41;4985020;28;20159;-73
2022/12/13 08:57:27;;;;;;;24.80;11.55;;;;;;;-1.64;60.51;96426.22;4988698;28;20272;-73
2022/12/13 08:59:53;;;;;;;22.88;10.85;;;;;;;-1.65;60.53;96427.19;5010264;28;20202;-74
2022/12/13 09:02:19;;;;;;;26.80;11.63;;;;;;;-1.72;60.35;96427.13;4977363;28;20152;-74
2022/12/13 09:04:44;;;;;;;25.77;10.60;;;;;;;-1.82;61.19;96425.88;4976996;28;20278;-73
2022/12/13 09:07:09;;;;;;;29.05;10.90;;;;;;;-1.60;60.96;96424.09;4993749;28;20217;-74
2022/12/13 09:09:35;;;;;;;25.70;11.30;;;;;;;-1.55;60.51;96426.88;4994066;28;20629;-73
2022/12/13 09:12:00;;;;;;;27.38;10.60;;;;;;;-1.47;60.47;96423.38;4973555;28;20589;-73
2022/12/13 09:14:26;;;;;;;25.10;11.32;;;;;;;-1.47;60.87;96424.19;4973449;28;20279;-73
2022/12/13 09:16:52;;;;;;;24.30;12.20;;;;;;;-1.37;61.24;96424.66;5007078;28;20157;-73
2022/12/13 09:19:17;;;;;;;25.05;11.32;;;;;;;-1.46;60.63;96425.75;5007029;28;20209;-74
2022/12/13 09:21:42;;;;;;;25.00;10.15;;;;;;;-1.49;61.65;96433.00;4990054;28;20201;-73
2022/12/13 09:24:08;;;;;;;25.70;11.38;;;;;;;-1.39;60.81;96424.06;4989769;28;20222;-74
2022/12/13 09:26:33;;;;;;;25.63;12.25;;;;;;;-1.28;60.41;96414.28;5008495;28;20206;-74
2022/12/13 09:28:59;;;;;;;26.00;11.50;;;;;;;-1.38;60.77;96423.06;5008556;28;20191;-74
2022/12/13 09:31:24;;;;;;;23.88;11.43;;;;;;;-1.21;60.97;96417.66;5016032;28;20530;-73
2022/12/13 09:33:50;;;;;;;27.17;12.82;;;;;;;-1.05;60.65;96421.69;4992731;28;20624;-74
2022/12/13 09:36:18;;;;;;;24.17;11.43;;;;;;;-1.09;60.61;96416.16;4975439;28;20274;-74
2022/12/13 09:38:44;;;;;;;25.75;10.65;;;;;;;-1.13;60.64;96425.97;4993302;28;20247;-73
2022/12/13 09:41:20;;;;;;;22.92;11.32;;;;;;;-1.01;60.52;96425.41;4976511;28;20374;-74
2022/12/13 09:43:52;;;;;;;24.27;10.68;;;;;;;-0.96;60.04;96425.63;5008994;28;20701;-74
2022/12/13 09:46:29;;;;;;;23.55;10.60;;;;;;;-0.86;60.67;96425.31;4989810;28;20498;-74
2022/12/13 09:48:55;;;;;;;20.27;9.43;;;;;;;-0.87;60.12;96416.06;4989620;28;20576;-74
2022/12/13 09:51:22;;;;;;;21.45;9.73;;;;;;;-0.76;59.78;96428.28;4973234;28;20277;-74
2022/12/13 09:53:49;;;;;;;20.45;10.07;;;;;;;-0.65;59.64;96417.53;5009256;27;20204;-73
2022/12/13 09:56:17;;;;;;;22.48;10.45;;;;;;;-0.63;59.97;96413.00;4996221;27;20261;-74
2022/12/13 09:58:47;;;;;;;22.58;9.90;;;;;;;-0.55;59.97;96414.59;5029914;27;20272;-74
2022/12/13 10:01:12;;;;;;;18.63;9.07;;;;;;;-0.59;59.24;96403.19;4996300;27;20188;-74
2022/12/13 10:03:40;;;;;;;18.67;8.93;;;;;;;-0.47;59.19;96405.97;5012100;27;20278;-74
2022/12/13 10:06:18;;;;;;;19.67;8.57;;;;;;;-0.46;59.15;96400.66;5029668;27;20095;-74
2022/12/13 10:08:51;;;;;;;20.90;9.10;;;;;;;-0.41;59.47;96392.41;4995250;27;20246;-74
2022/12/13 10:11:18;;;;;;;21.40;9.43;;;;;;;-0.24;58.82;96398.75;5012880;27;20188;-74
2022/12/13 10:13:49;;;;;;;18.85;8.57;;;;;;;-0.30;58.50;96396.16;5028978;27;20181;-74
2022/12/13 10:16:46;;;;;;;14.73;7.03;;;;;;;-0.10;57.97;96393.66;5001787;28;20652;-74
2022/12/13 10:19:16;;;;;;;18.35;9.23;;;;;;;-0.09;58.28;96397.75;4992940;28;20367;-74
2022/12/13 10:21:43;;;;;;;16.17;7.88;;;;;;;-0.08;58.15;96397.56;5008655;27;20361;-74
2022/12/13 10:24:14;;;;;;;17.42;7.32;;;;;;;-0.09;58.20;96392.66;5025184;27;20138;-74
2022/12/13 10:26:40;;;;;;;20.60;9.25;;;;;;;-0.09;58.38;96395.22;5009304;28;20189;-74
2022/12/13 10:29:06;;;;;;;25.88;11.20;;;;;;;-0.09;58.62;96385.75;4992435;28;20636;-74
2022/12/13 10:31:44;;;;;;;27.77;12.27;;;;;;;0.05;58.62;96381.41;5026075;28;20183;-74
2022/12/13 10:34:29;;;;;;;24.95;10.10;;;;;;;0.24;58.59;96382.44;5011085;27;20280;-74
2022/12/13 10:36:54;;;;;;;18.10;9.05;;;;;;;0.09;58.71;96377.50;5011156;27;20355;-74
2022/12/13 10:39:37;;;;;;;18.67;8.45;;;;;;;0.16;58.41;96378.28;4995425;27;20272;-74
2022/12/13 10:42:05;;;;;;;21.10;9.40;;;;;;;0.11;58.27;96374.75;5011820;27;20288;-74
2022/12/13 10:44:30;;;;;;;24.48;10.52;;;;;;;0.08;58.33;96375.91;4998787;28;20726;-74
2022/12/13 10:47:03;;;;;;;20.92;9.73;;;;;;;0.26;57.77;96377.09;4956557;28;20244;-74
2022/12/13 10:49:45;;;;;;;17.35;8.90;;;;;;;0.05;58.11;96365.28;4972224;28;20275;-73
2022/12/13 10:52:31;;;;;;;19.48;8.88;;;;;;;0.29;58.30;96361.34;4975308;28;20293;-75
2022/12/13 10:55:01;;;;;;;15.15;7.63;;;;;;;0.14;57.81;96359.00;4955275;28;20163;-74
2022/12/13 10:57:26;;;;;;;16.75;8.57;;;;;;;0.10;58.34;96356.03;4987830;28;20200;-75
2022/12/13 10:59:51;;;;;;;17.67;9.02;;;;;;;0.07;57.61;96359.00;4988468;28;20136;-75
2022/12/13 11:02:33;;;;;;;19.10;9.18;;;;;;;0.08;58.28;96359.78;4971822;28;20185;-74
2022/12/13 11:05:20;;;;;;;17.08;9.07;;;;;;;0.13;57.69;96363.31;4985523;28;20280;-74
2022/12/13 11:07:45;;;;;;;18.95;8.98;;;;;;;0.08;57.68;96352.88;4991123;28;20282;-75
2022/12/13 11:10:26;;;;;;;18.08;8.15;;;;;;;0.19;57.45;96356.63;4974206;28;20370;-74
2022/12/13 11:12:59;;;;;;;21.45;9.60;;;;;;;0.18;57.81;96350.72;5007687;28;20239;-74
2022/12/13 11:15:25;;;;;;;19.02;7.85;;;;;;;0.21;57.04;96353.84;4974819;28;20209;-74
2022/12/13 11:17:53;;;;;;;16.35;8.25;;;;;;;0.27;57.15;96348.72;4974583;28;20205;-74
2022/12/13 11:20:21;;;;;;;13.30;6.40;;;;;;;0.22;56.19;96342.63;5007976;28;20166;-74
2022/12/13 11:22:48;;;;;;;18.40;8.38;;;;;;;0.17;56.12;96343.22;4990771;28;20197;-75
2022/12/13 11:25:25;;;;;;;14.13;6.57;;;;;;;0.34;55.86;96341.03;4974747;28;20279;-74
2022/12/13 11:28:48;;;;;;;18.95;6.78;;;;;;;0.67;55.21;96340.97;4991126;28;20249;-74
2022/12/13 11:31:34;;;;;;;14.57;6.60;;;;;;;0.33;55.44;96332.56;4907443;28;20179;-74